createdAt,value
2019-03-29T00:03:47.315Z,16.40
2019-03-29T00:07:52.452Z,19.87
2019-03-29T00:11:57.595Z,20.68
2019-03-29T00:16:02.708Z,17.90
2019-03-29T00:20:08.155Z,21.30
2019-03-29T00:24:13.267Z,17.57
2019-03-29T00:28:18.403Z,15.70
2019-03-29T00:32:23.584Z,18.33
2019-03-29T00:36:28.720Z,16.97
2019-03-29T00:40:33.800Z,14.28
2019-03-29T00:44:38.931Z,17.95
2019-03-29T00:48:44.060Z,16.77
2019-03-29T00:52:49.239Z,13.98
2019-03-29T00:56:54.379Z,14.20
2019-03-29T01:01:00.041Z,14.30
2019-03-29T01:05:05.120Z,14.23
2019-03-29T01:09:10.292Z,15.28
2019-03-29T01:13:15.424Z,14.95
2019-03-29T01:17:20.544Z,13.90
2019-03-29T01:21:25.648Z,14.93
2019-03-29T01:25:30.735Z,14.35
2019-03-29T01:29:35.855Z,13.85
2019-03-29T01:33:40.983Z,13.65
2019-03-29T01:37:46.159Z,13.53
2019-03-29T01:41:52.982Z,12.70
2019-03-29T01:45:58.204Z,11.93
2019-03-29T01:50:03.313Z,14.07
2019-03-29T01:54:08.423Z,15.60
2019-03-29T01:58:13.535Z,16.10
2019-03-29T02:02:18.685Z,15.75
2019-03-29T02:06:23.812Z,16.93
2019-03-29T02:10:29.025Z,14.77
2019-03-29T02:14:34.198Z,13.95
2019-03-29T02:18:39.970Z,13.48
2019-03-29T02:22:45.111Z,12.90
2019-03-29T02:26:50.212Z,11.90
2019-03-29T02:30:55.374Z,13.25
2019-03-29T02:35:00.526Z,11.30
2019-03-29T02:39:06.925Z,15.63
2019-03-29T02:43:12.062Z,15.18
2019-03-29T02:47:17.155Z,16.10
2019-03-29T02:51:23.249Z,16.73
2019-03-29T02:55:28.426Z,16.87
2019-03-29T02:59:33.585Z,17.20
2019-03-29T03:03:38.705Z,15.53
2019-03-29T03:07:44.148Z,16.10
2019-03-29T03:11:49.337Z,16.73
2019-03-29T03:15:54.483Z,15.38
2019-03-29T03:19:59.615Z,12.93
2019-03-29T03:24:04.863Z,15.25
2019-03-29T03:28:09.974Z,14.80
2019-03-29T03:32:15.105Z,12.60
2019-03-29T03:36:20.250Z,12.63
2019-03-29T03:40:25.385Z,14.23
2019-03-29T03:44:30.522Z,14.00
2019-03-29T03:48:35.574Z,12.73
2019-03-29T03:52:40.883Z,12.73
2019-03-29T03:56:46.560Z,13.53
2019-03-29T04:00:58.843Z,12.73
2019-03-29T04:05:03.972Z,15.35
2019-03-29T04:09:09.136Z,13.90
2019-03-29T04:13:14.312Z,13.32
2019-03-29T04:17:19.442Z,16.50
2019-03-29T04:21:24.559Z,15.20
2019-03-29T04:25:29.677Z,16.67
2019-03-29T04:29:35.084Z,17.45
2019-03-29T04:33:40.206Z,17.75
2019-03-29T04:37:45.710Z,16.10
2019-03-29T04:41:50.834Z,17.43
2019-03-29T04:50:04.535Z,19.32
2019-03-29T04:54:09.613Z,14.98
2019-03-29T04:58:14.760Z,15.65
2019-03-29T05:02:19.864Z,15.13
2019-03-29T05:06:25.320Z,14.10
2019-03-29T05:10:30.480Z,14.00
2019-03-29T05:14:35.593Z,15.30
2019-03-29T05:18:40.725Z,20.23
2019-03-29T05:22:45.940Z,16.90
2019-03-29T05:26:51.058Z,18.57
2019-03-29T05:30:56.184Z,16.13
2019-03-29T05:35:01.283Z,16.67
2019-03-29T05:39:07.937Z,18.57
2019-03-29T05:43:13.136Z,18.25
2019-03-29T05:47:18.320Z,18.30
2019-03-29T05:51:23.408Z,16.95
2019-03-29T05:55:32.871Z,18.15
2019-03-29T05:59:35.234Z,17.60
2019-03-29T06:03:40.354Z,17.52
2019-03-29T06:07:45.461Z,17.53
2019-03-29T06:11:50.647Z,16.30
2019-03-29T06:15:55.720Z,17.55
2019-03-29T06:20:00.828Z,17.32
2019-03-29T06:24:05.929Z,22.80
2019-03-29T06:28:11.030Z,18.17
2019-03-29T06:32:16.195Z,19.17
2019-03-29T06:36:23.160Z,19.73
2019-03-29T06:40:28.260Z,19.70
2019-03-29T06:44:33.375Z,18.48
2019-03-29T06:48:38.471Z,20.27
2019-03-29T06:52:43.585Z,21.10
2019-03-29T06:56:48.660Z,21.10
2019-03-29T07:00:53.764Z,17.57
2019-03-29T07:04:58.868Z,21.60
2019-03-29T07:09:05.866Z,21.10
2019-03-29T07:13:10.992Z,20.77
2019-03-29T07:17:16.187Z,20.32
2019-03-29T07:21:22.121Z,20.02
2019-03-29T07:25:27.581Z,19.27
2019-03-29T07:29:32.679Z,22.65
2019-03-29T07:33:37.895Z,20.13
2019-03-29T07:37:42.971Z,15.87
2019-03-29T07:41:48.077Z,16.40
2019-03-29T07:45:53.181Z,19.23
2019-03-29T07:49:58.281Z,16.90
2019-03-29T07:54:03.367Z,19.50
2019-03-29T07:58:08.457Z,18.47
2019-03-29T08:02:13.590Z,18.60
2019-03-29T08:06:18.727Z,21.03
2019-03-29T08:10:29.124Z,19.85
2019-03-29T08:14:31.344Z,16.55
2019-03-29T08:18:36.414Z,18.60
2019-03-29T08:22:41.543Z,17.50
2019-03-29T08:26:46.665Z,17.20
2019-03-29T08:30:51.779Z,15.32
2019-03-29T08:34:56.868Z,12.28
2019-03-29T08:39:01.974Z,13.38
2019-03-29T08:43:07.121Z,12.82
2019-03-29T08:47:12.239Z,12.78
2019-03-29T08:51:17.449Z,12.58
2019-03-29T08:55:22.599Z,12.70
2019-03-29T08:59:27.690Z,12.20
2019-03-29T09:03:32.833Z,14.33
2019-03-29T09:07:44.674Z,13.00
2019-03-29T09:11:44.774Z,13.58
2019-03-29T09:15:49.920Z,13.22
2019-03-29T09:19:55.097Z,12.88
2019-03-29T09:24:00.174Z,14.18
2019-03-29T09:28:05.304Z,14.13
2019-03-29T09:32:10.439Z,13.65
2019-03-29T09:36:15.578Z,11.08
2019-03-29T09:40:21.198Z,12.27
2019-03-29T09:44:26.380Z,10.73
2019-03-29T09:48:34.422Z,12.80
2019-03-29T09:52:38.320Z,14.93
2019-03-29T09:56:43.438Z,13.80
2019-03-29T10:00:48.933Z,10.80
2019-03-29T10:04:53.989Z,12.75
2019-03-29T10:08:59.237Z,12.60
2019-03-29T10:13:04.352Z,11.20
2019-03-29T10:17:09.471Z,11.70
2019-03-29T10:21:17.150Z,12.78
2019-03-29T10:25:21.800Z,11.65
2019-03-29T10:29:27.004Z,12.18
2019-03-29T10:33:32.153Z,12.30
2019-03-29T10:37:37.271Z,12.47
2019-03-29T10:41:42.683Z,10.90
2019-03-29T10:45:47.758Z,11.25
2019-03-29T10:49:52.857Z,12.00
2019-03-29T10:53:57.985Z,13.10
2019-03-29T10:58:03.108Z,13.30
2019-03-29T11:02:08.246Z,11.18
2019-03-29T11:06:13.315Z,12.58
2019-03-29T11:10:31.578Z,11.93
2019-03-29T11:14:36.688Z,12.23
2019-03-29T11:18:41.814Z,12.37
2019-03-29T11:22:46.924Z,12.57
2019-03-29T11:26:52.037Z,13.10
2019-03-29T11:30:57.099Z,14.28
2019-03-29T11:35:02.225Z,13.15
2019-03-29T11:39:08.864Z,11.83
2019-03-29T11:43:26.125Z,12.80
2019-03-29T11:47:20.860Z,13.35
2019-03-29T11:51:25.935Z,10.50
2019-03-29T11:55:31.044Z,12.05
2019-03-29T11:59:36.174Z,12.03
2019-03-29T12:03:41.352Z,11.60
2019-03-29T12:07:46.473Z,11.53
2019-03-29T12:11:51.576Z,11.50
2019-03-29T12:15:56.692Z,11.38
2019-03-29T12:20:01.782Z,12.20
2019-03-29T12:24:06.897Z,11.93
2019-03-29T12:28:11.999Z,12.18
2019-03-29T12:32:17.094Z,12.35
2019-03-29T12:36:22.153Z,11.00
2019-03-29T12:40:27.343Z,12.97
2019-03-29T12:44:32.437Z,10.97
2019-03-29T12:48:37.571Z,15.50
2019-03-29T12:52:42.632Z,13.97
2019-03-29T12:56:47.740Z,11.90
2019-03-29T13:00:52.957Z,13.10
2019-03-29T13:04:58.068Z,14.83
2019-03-29T13:09:03.209Z,15.43
2019-03-29T13:13:08.625Z,13.17
2019-03-29T13:17:13.958Z,12.73
2019-03-29T13:21:19.039Z,10.70
2019-03-29T13:25:24.136Z,13.37
2019-03-29T13:29:29.234Z,15.83
2019-03-29T13:33:34.302Z,11.73
2019-03-29T13:37:39.391Z,13.87
2019-03-29T13:41:44.480Z,11.60
2019-03-29T13:45:49.581Z,13.03
2019-03-29T13:49:54.644Z,11.47
2019-03-29T13:53:59.751Z,12.10
2019-03-29T13:58:04.961Z,13.77
2019-03-29T14:02:10.062Z,15.10
2019-03-29T14:06:15.160Z,13.23
2019-03-29T14:10:20.278Z,12.87
2019-03-29T14:14:37.708Z,11.95
2019-03-29T14:18:32.120Z,12.10
2019-03-29T14:22:37.249Z,12.60
2019-03-29T14:26:42.349Z,12.37
2019-03-29T14:30:47.455Z,14.97
2019-03-29T14:34:52.513Z,11.10
2019-03-29T14:38:57.620Z,11.37
2019-03-29T14:43:02.716Z,12.03
2019-03-29T14:47:07.829Z,13.03
2019-03-29T14:51:13.305Z,12.17
2019-03-29T14:55:18.376Z,12.47
2019-03-29T14:59:23.483Z,12.27
2019-03-29T15:03:28.647Z,11.37
2019-03-29T15:07:33.933Z,12.83
2019-03-29T15:11:39.091Z,10.27
2019-03-29T15:15:44.173Z,12.53
2019-03-29T15:19:49.272Z,11.80
2019-03-29T15:23:54.480Z,13.27
2019-03-29T15:27:59.590Z,11.00
2019-03-29T15:32:04.699Z,12.63
2019-03-29T15:36:09.768Z,11.27
2019-03-29T15:40:15.148Z,11.47
2019-03-29T15:44:20.271Z,12.03
2019-03-29T15:48:25.394Z,10.23
2019-03-29T15:52:30.511Z,11.77
2019-03-29T15:56:35.587Z,13.50
2019-03-29T16:00:40.727Z,10.47
2019-03-29T16:04:45.925Z,19.90
2019-03-29T16:08:51.040Z,12.07
2019-03-29T16:12:56.189Z,10.17
2019-03-29T16:17:01.257Z,12.33
2019-03-29T16:21:06.457Z,12.53
2019-03-29T16:25:11.665Z,10.77
2019-03-29T16:29:16.776Z,11.47
2019-03-29T16:33:21.880Z,11.37
2019-03-29T16:37:26.957Z,11.13
2019-03-29T16:41:32.078Z,10.53
2019-03-29T16:45:47.311Z,11.03
2019-03-29T16:49:43.956Z,11.40
2019-03-29T16:53:49.066Z,10.87
2019-03-29T16:57:54.145Z,11.60
2019-03-29T17:01:59.240Z,10.63
2019-03-29T17:06:04.352Z,12.77
2019-03-29T17:10:09.673Z,10.70
2019-03-29T17:14:15.361Z,11.53
2019-03-29T17:18:29.219Z,16.20
2019-03-29T17:22:27.274Z,12.13
2019-03-29T17:26:32.533Z,12.30
2019-03-29T17:31:02.592Z,19.20
2019-03-29T17:35:07.968Z,13.77
2019-03-29T17:39:13.055Z,9.90
2019-03-29T17:43:18.192Z,11.00
2019-03-29T17:48:47.415Z,14.83
2019-03-29T17:52:57.296Z,12.60
2019-03-29T17:57:03.946Z,13.90
2019-03-29T18:01:10.016Z,12.80
2019-03-29T18:05:18.346Z,11.43
2019-03-29T18:09:26.989Z,11.07
2019-03-29T18:13:33.246Z,12.60
2019-03-29T18:17:40.523Z,14.53
2019-03-29T18:21:47.813Z,17.03
2019-03-29T18:25:52.924Z,15.63
2019-03-29T18:29:58.013Z,16.20
2019-03-29T18:34:03.282Z,16.43
2019-03-29T18:38:08.436Z,17.43
2019-03-29T18:42:13.488Z,22.93
2019-03-29T18:46:18.599Z,17.00
2019-03-29T18:50:23.701Z,16.33
2019-03-29T18:54:30.140Z,15.73
2019-03-29T18:58:35.276Z,14.80
2019-03-29T19:02:40.434Z,18.48
2019-03-29T19:06:45.613Z,17.35
2019-03-29T19:10:52.140Z,14.53
2019-03-29T19:14:57.236Z,13.05
2019-03-29T19:19:09.914Z,15.20
2019-03-29T19:23:09.296Z,14.90
2019-03-29T19:27:14.460Z,15.25
2019-03-29T19:31:20.296Z,17.35
2019-03-29T19:35:25.644Z,20.95
2019-03-29T19:39:30.858Z,19.82
2019-03-29T19:43:35.981Z,16.67
2019-03-29T19:47:41.097Z,17.93
2019-03-29T19:51:47.334Z,19.80
2019-03-29T19:55:52.428Z,18.57
2019-03-29T19:59:57.553Z,19.20
2019-03-29T20:04:02.645Z,17.47
2019-03-29T20:08:09.503Z,18.90
2019-03-29T20:12:15.152Z,23.03
2019-03-29T20:16:20.240Z,23.97
2019-03-29T20:20:26.296Z,20.53
2019-03-29T20:24:31.412Z,24.13
2019-03-29T20:28:36.499Z,20.80
2019-03-29T20:32:41.636Z,27.03
2019-03-29T20:36:46.721Z,18.93
2019-03-29T20:40:51.839Z,18.07
2019-03-29T20:44:56.944Z,19.30
2019-03-29T20:49:02.056Z,17.67
2019-03-29T20:53:07.180Z,20.27
2019-03-29T20:57:12.255Z,21.70
2019-03-29T21:01:17.365Z,16.53
2019-03-29T21:05:22.481Z,19.23
2019-03-29T21:09:27.641Z,19.55
2019-03-29T21:13:32.848Z,18.92
2019-03-29T21:17:38.015Z,17.32
2019-03-29T21:21:43.144Z,21.15
2019-03-29T21:25:48.252Z,19.15
2019-03-29T21:29:53.357Z,16.48
2019-03-29T21:33:58.490Z,15.85
2019-03-29T21:38:03.604Z,17.30
2019-03-29T21:42:08.737Z,19.50
2019-03-29T21:46:13.862Z,15.03
2019-03-29T21:50:19.118Z,17.30
2019-03-29T21:54:24.575Z,20.50
2019-03-29T21:58:29.660Z,21.37
2019-03-29T22:02:34.813Z,20.23
2019-03-29T22:06:39.929Z,18.92
2019-03-29T22:10:45.089Z,19.55
2019-03-29T22:14:50.224Z,20.55
2019-03-29T22:18:55.311Z,19.87
2019-03-29T22:23:00.489Z,16.82
2019-03-29T22:27:05.607Z,16.95
2019-03-29T22:31:10.755Z,17.87
2019-03-29T22:35:15.918Z,18.87
2019-03-29T22:39:21.015Z,17.85
2019-03-29T22:43:26.276Z,19.52
2019-03-29T22:47:31.403Z,15.40
2019-03-29T22:51:36.524Z,18.80
2019-03-29T22:55:41.639Z,17.05
2019-03-29T22:59:46.716Z,16.60
2019-03-29T23:03:51.876Z,17.33
2019-03-29T23:07:57.008Z,18.25
2019-03-29T23:12:02.161Z,21.35
2019-03-29T23:40:29.896Z,23.00
2019-03-29T23:44:35.019Z,21.73
2019-03-29T23:48:40.137Z,22.02
2019-03-29T23:52:45.276Z,22.75
2019-03-29T23:56:50.384Z,20.48
